EWG1244 EDDL-LEPA
Flight info
| Callsign | EWG1244 |
|---|---|
| Flight time | N/A |
| Altitude | 24000 |
| Route | MODRU7Z/05R MODRU Z283 LNO/N0454F350 Z283 SOPOK/N0454F370 Z283 RITAX UT27 ROUSY DCT GTQ DCT POGOL DCT LASAT DCT MOROK DCT GILIR DCT GEVEA DCT INCUS DCT BALSI DCT RETNO DCT TUPOX DCT MTG DCT DIVKO DCT VATIR N852 VERSO L129 LUNIK |
| Aircraft | A320/M-SDE3FGHIRWY/LB1 |
Departure
| Time | 2026-05-07 17:41 |
|---|---|
| Airport | Düsseldorf Airport (EDDL) |
Arrival
| Time | N/A |
|---|---|
| Airport | Palma de Mallorca Airport (LEPA) |
| Time | Latitude | Longitude | Altitude | Speed | Heading |
|---|---|---|---|---|---|
| 2026-05-07 17:21 | 51.27625 | 6.76291 | 125 ft | 0 kts | 8° |
| 2026-05-07 17:26 | 51.27610 | 6.76288 | 125 ft | 4 kts | 8° |
| 2026-05-07 17:26 | 51.27583 | 6.76282 | 126 ft | 4 kts | 6° |
| 2026-05-07 17:26 | 51.27556 | 6.76280 | 126 ft | 4 kts | 352° |
| 2026-05-07 17:27 | 51.27537 | 6.76290 | 128 ft | 4 kts | 282° |
| 2026-05-07 17:27 | 51.27536 | 6.76296 | 129 ft | 0 kts | 248° |
| 2026-05-07 17:29 | 51.27530 | 6.76272 | 126 ft | 6 kts | 248° |
| 2026-05-07 17:30 | 51.27511 | 6.76175 | 127 ft | 9 kts | 259° |
| 2026-05-07 17:30 | 51.27491 | 6.76080 | 127 ft | 10 kts | 248° |
| 2026-05-07 17:30 | 51.27470 | 6.75981 | 126 ft | 9 kts | 265° |
| 2026-05-07 17:30 | 51.27481 | 6.75884 | 131 ft | 9 kts | 276° |
| 2026-05-07 17:31 | 51.27456 | 6.75776 | 129 ft | 14 kts | 244° |
| 2026-05-07 17:31 | 51.27458 | 6.75648 | 127 ft | 12 kts | 326° |
| 2026-05-07 17:31 | 51.27533 | 6.75586 | 127 ft | 13 kts | 333° |
| 2026-05-07 17:31 | 51.27618 | 6.75525 | 125 ft | 13 kts | 340° |
| 2026-05-07 17:32 | 51.27698 | 6.75464 | 126 ft | 12 kts | 333° |
| 2026-05-07 17:32 | 51.27772 | 6.75405 | 122 ft | 12 kts | 333° |
| 2026-05-07 17:32 | 51.27830 | 6.75359 | 124 ft | 7 kts | 333° |
| 2026-05-07 17:32 | 51.27838 | 6.75353 | 125 ft | 0 kts | 333° |
| 2026-05-07 17:34 | 51.27850 | 6.75343 | 122 ft | 7 kts | 333° |
| 2026-05-07 17:34 | 51.27893 | 6.75307 | 125 ft | 0 kts | 333° |
| 2026-05-07 17:35 | 51.27902 | 6.75300 | 123 ft | 7 kts | 333° |
| 2026-05-07 17:35 | 51.27978 | 6.75262 | 124 ft | 13 kts | 14° |
| 2026-05-07 17:36 | 51.28021 | 6.75326 | 123 ft | 0 kts | 52° |
| 2026-05-07 17:40 | 51.28083 | 6.75456 | 126 ft | 47 kts | 53° |
| 2026-05-07 17:40 | 51.28427 | 6.76180 | 126 ft | 114 kts | 53° |
| 2026-05-07 17:40 | 51.29015 | 6.77418 | 211 ft | 157 kts | 53° |
| 2026-05-07 17:40 | 51.29704 | 6.78854 | 728 ft | 169 kts | 52° |
| 2026-05-07 17:41 | 51.30430 | 6.80361 | 1366 ft | 180 kts | 52° |
| 2026-05-07 17:41 | 51.31244 | 6.82081 | 1835 ft | 203 kts | 52° |
| 2026-05-07 17:41 | 51.32145 | 6.83993 | 2251 ft | 227 kts | 52° |
| 2026-05-07 17:41 | 51.33143 | 6.86104 | 2745 ft | 248 kts | 52° |
| 2026-05-07 17:42 | 51.34239 | 6.88300 | 3578 ft | 255 kts | 45° |
| 2026-05-07 17:42 | 51.35647 | 6.90047 | 4508 ft | 258 kts | 28° |
| 2026-05-07 17:42 | 51.37308 | 6.91060 | 5401 ft | 262 kts | 11° |
| 2026-05-07 17:42 | 51.39134 | 6.91548 | 6315 ft | 265 kts | 8° |
| 2026-05-07 17:43 | 51.40944 | 6.92018 | 7161 ft | 268 kts | 8° |
| 2026-05-07 17:43 | 51.42823 | 6.92510 | 7996 ft | 274 kts | 8° |
| 2026-05-07 17:43 | 51.44723 | 6.93015 | 8804 ft | 280 kts | 8° |
| 2026-05-07 17:43 | 51.46668 | 6.93332 | 9605 ft | 284 kts | 354° |
| 2026-05-07 17:44 | 51.48565 | 6.92580 | 10341 ft | 286 kts | 332° |
| 2026-05-07 17:44 | 51.50207 | 6.90713 | 10840 ft | 299 kts | 312° |
| 2026-05-07 17:44 | 51.51342 | 6.87795 | 11073 ft | 321 kts | 288° |
| 2026-05-07 17:44 | 51.51603 | 6.84160 | 11279 ft | 342 kts | 262° |
| 2026-05-07 17:45 | 51.50735 | 6.80551 | 11687 ft | 356 kts | 234° |
| 2026-05-07 17:45 | 51.49032 | 6.77622 | 12333 ft | 362 kts | 224° |
| 2026-05-07 17:45 | 51.47187 | 6.74848 | 13048 ft | 365 kts | 223° |
| 2026-05-07 17:45 | 51.45287 | 6.72090 | 13779 ft | 369 kts | 223° |
| 2026-05-07 17:46 | 51.43365 | 6.69335 | 14404 ft | 372 kts | 222° |
| 2026-05-07 17:46 | 51.41432 | 6.66564 | 15030 ft | 375 kts | 223° |
| 2026-05-07 17:46 | 51.39482 | 6.63743 | 15637 ft | 378 kts | 223° |
| 2026-05-07 17:46 | 51.37524 | 6.60886 | 16223 ft | 381 kts | 223° |
| 2026-05-07 17:47 | 51.35560 | 6.58007 | 16821 ft | 384 kts | 223° |
| 2026-05-07 17:47 | 51.33609 | 6.55145 | 17385 ft | 388 kts | 223° |
| 2026-05-07 17:47 | 51.31609 | 6.52217 | 17981 ft | 391 kts | 223° |
| 2026-05-07 17:47 | 51.29596 | 6.49274 | 18527 ft | 394 kts | 223° |
| 2026-05-07 17:48 | 51.27560 | 6.46302 | 19015 ft | 397 kts | 223° |
| 2026-05-07 17:48 | 51.25518 | 6.43329 | 19503 ft | 399 kts | 223° |
| 2026-05-07 17:48 | 51.23454 | 6.40328 | 19988 ft | 402 kts | 223° |
| 2026-05-07 17:48 | 51.21372 | 6.37307 | 20474 ft | 404 kts | 223° |
| 2026-05-07 17:49 | 51.19278 | 6.34269 | 20915 ft | 407 kts | 223° |
| 2026-05-07 17:49 | 51.17180 | 6.31230 | 21031 ft | 407 kts | 223° |
| 2026-05-07 17:49 | 51.15110 | 6.28238 | 21057 ft | 407 kts | 223° |
| 2026-05-07 17:49 | 51.13002 | 6.25199 | 21185 ft | 410 kts | 223° |
| 2026-05-07 17:50 | 51.10890 | 6.22156 | 21696 ft | 412 kts | 223° |
| 2026-05-07 17:50 | 51.08756 | 6.19084 | 22167 ft | 414 kts | 223° |
| 2026-05-07 17:50 | 51.06611 | 6.15995 | 22619 ft | 417 kts | 223° |
| 2026-05-07 17:50 | 51.04459 | 6.12903 | 23086 ft | 418 kts | 223° |
| 2026-05-07 17:51 | 51.02279 | 6.09818 | 23539 ft | 420 kts | 220° |
| 2026-05-07 17:51 | 50.99881 | 6.07142 | 23892 ft | 424 kts | 213° |
| 2026-05-07 17:51 | 50.97374 | 6.04663 | 24027 ft | 427 kts | 213° |
| 2026-05-07 17:51 | 50.94813 | 6.02139 | 24060 ft | 437 kts | 213° |
| 2026-05-07 17:52 | 50.92183 | 5.99650 | 24057 ft | 443 kts | 211° |
| 2026-05-07 17:52 | 50.89488 | 5.97280 | 24057 ft | 444 kts | 210° |
| 2026-05-07 17:52 | 50.86753 | 5.94993 | 24057 ft | 445 kts | 208° |
| 2026-05-07 17:52 | 50.84006 | 5.92746 | 24057 ft | 445 kts | 208° |
| 2026-05-07 17:53 | 50.81256 | 5.90491 | 24056 ft | 445 kts | 209° |
| 2026-05-07 17:53 | 50.78523 | 5.88207 | 24057 ft | 445 kts | 209° |
| 2026-05-07 17:53 | 50.75832 | 5.85914 | 24056 ft | 444 kts | 210° |
| 2026-05-07 17:53 | 50.73115 | 5.83569 | 24053 ft | 444 kts | 210° |
| 2026-05-07 17:54 | 50.70407 | 5.81218 | 24051 ft | 444 kts | 210° |
| 2026-05-07 17:54 | 50.67688 | 5.78858 | 24051 ft | 445 kts | 210° |
| 2026-05-07 17:54 | 50.64973 | 5.76507 | 24052 ft | 445 kts | 210° |
| 2026-05-07 17:54 | 50.63162 | 5.74974 | 24051 ft | 445 kts | 207° |
| 2026-05-07 17:55 | 50.59304 | 5.72773 | 24055 ft | 447 kts | 194° |
| 2026-05-07 17:55 | 50.56223 | 5.72039 | 24055 ft | 449 kts | 185° |
| 2026-05-07 17:55 | 50.54108 | 5.72001 | 24057 ft | 450 kts | 179° |
| 2026-05-07 17:55 | 50.49973 | 5.72701 | 24048 ft | 451 kts | 174° |
| 2026-05-07 17:56 | 50.47905 | 5.73095 | 24044 ft | 452 kts | 175° |
| 2026-05-07 17:56 | 50.44785 | 5.73685 | 24053 ft | 452 kts | 175° |
| 2026-05-07 17:56 | 50.41662 | 5.74274 | 24063 ft | 456 kts | 175° |
| 2026-05-07 17:56 | 50.38488 | 5.74869 | 24181 ft | 462 kts | 175° |
| 2026-05-07 17:57 | 50.35274 | 5.75476 | 24314 ft | 468 kts | 174° |
| 2026-05-07 17:57 | 50.32035 | 5.76093 | 24575 ft | 469 kts | 174° |
| 2026-05-07 17:57 | 50.28792 | 5.76714 | 24920 ft | 469 kts | 174° |
| 2026-05-07 17:57 | 50.25555 | 5.77334 | 25278 ft | 468 kts | 175° |
| 2026-05-07 17:58 | 50.22319 | 5.77950 | 25645 ft | 467 kts | 175° |
| 2026-05-07 17:58 | 50.19111 | 5.78822 | 26006 ft | 469 kts | 165° |
| 2026-05-07 17:58 | 50.16098 | 5.80783 | 26372 ft | 470 kts | 155° |
| 2026-05-07 17:58 | 50.13176 | 5.83072 | 26757 ft | 470 kts | 155° |
| 2026-05-07 17:59 | 50.10262 | 5.85379 | 27148 ft | 469 kts | 155° |
| 2026-05-07 17:59 | 50.07360 | 5.87692 | 27533 ft | 468 kts | 155° |
| 2026-05-07 17:59 | 50.04462 | 5.90004 | 27928 ft | 467 kts | 155° |
| 2026-05-07 17:59 | 50.01576 | 5.92303 | 28310 ft | 466 kts | 155° |
| 2026-05-07 18:00 | 49.98677 | 5.94603 | 28702 ft | 466 kts | 155° |
| 2026-05-07 18:00 | 49.95793 | 5.96879 | 29103 ft | 465 kts | 155° |
| 2026-05-07 18:00 | 49.92942 | 5.99117 | 29487 ft | 464 kts | 155° |
| 2026-05-07 18:00 | 49.90056 | 6.01376 | 29884 ft | 464 kts | 155° |
| 2026-05-07 18:01 | 49.87174 | 6.03631 | 30251 ft | 463 kts | 155° |
| 2026-05-07 18:01 | 49.84296 | 6.05883 | 30588 ft | 462 kts | 155° |
| 2026-05-07 18:01 | 49.81425 | 6.08129 | 30911 ft | 462 kts | 155° |
| 2026-05-07 18:01 | 49.78547 | 6.10379 | 31044 ft | 463 kts | 155° |
| 2026-05-07 18:02 | 49.69920 | 6.17097 | 31056 ft | 463 kts | 155° |
| 2026-05-07 18:03 | 49.64168 | 6.21565 | 31057 ft | 462 kts | 155° |
| 2026-05-07 18:03 | 49.58417 | 6.26009 | 31058 ft | 462 kts | 155° |
| 2026-05-07 18:04 | 49.52693 | 6.30428 | 31052 ft | 463 kts | 155° |
| 2026-05-07 18:04 | 49.46937 | 6.34878 | 31049 ft | 463 kts | 155° |
| 2026-05-07 18:05 | 49.41171 | 6.39313 | 31048 ft | 463 kts | 155° |
| 2026-05-07 18:05 | 49.35400 | 6.43733 | 31043 ft | 463 kts | 155° |
| 2026-05-07 18:06 | 49.29640 | 6.48119 | 31037 ft | 463 kts | 155° |
| 2026-05-07 18:06 | 49.23876 | 6.52516 | 31039 ft | 463 kts | 155° |
| 2026-05-07 18:07 | 49.18134 | 6.56887 | 31037 ft | 463 kts | 155° |
| 2026-05-07 18:07 | 49.12361 | 6.61259 | 31039 ft | 463 kts | 155° |
| 2026-05-07 18:08 | 49.06574 | 6.65636 | 31031 ft | 463 kts | 155° |
| 2026-05-07 18:08 | 49.00720 | 6.69733 | 31035 ft | 461 kts | 164° |
| 2026-05-07 18:09 | 48.94471 | 6.71421 | 31039 ft | 455 kts | 181° |
| 2026-05-07 18:09 | 48.88144 | 6.71209 | 31030 ft | 457 kts | 184° |
| 2026-05-07 18:10 | 48.81692 | 6.70949 | 31058 ft | 470 kts | 184° |
| 2026-05-07 18:10 | 48.75154 | 6.70690 | 31056 ft | 474 kts | 184° |
| 2026-05-07 18:11 | 48.68546 | 6.70438 | 31058 ft | 475 kts | 184° |
| 2026-05-07 18:11 | 48.61939 | 6.70189 | 31060 ft | 475 kts | 184° |
| 2026-05-07 18:12 | 48.55327 | 6.69935 | 31055 ft | 475 kts | 184° |
| 2026-05-07 18:12 | 48.48705 | 6.69672 | 31056 ft | 475 kts | 184° |
| 2026-05-07 18:13 | 48.42135 | 6.69426 | 31050 ft | 475 kts | 184° |
| 2026-05-07 18:13 | 48.35518 | 6.69173 | 31054 ft | 475 kts | 184° |
| 2026-05-07 18:14 | 48.28904 | 6.68915 | 31055 ft | 475 kts | 184° |
| 2026-05-07 18:14 | 48.22303 | 6.68656 | 31040 ft | 474 kts | 184° |
| 2026-05-07 18:15 | 48.15708 | 6.68409 | 31039 ft | 474 kts | 184° |
| 2026-05-07 18:15 | 48.09115 | 6.68152 | 31040 ft | 474 kts | 184° |
| 2026-05-07 18:16 | 48.02564 | 6.67904 | 31033 ft | 473 kts | 184° |
| 2026-05-07 18:16 | 47.95972 | 6.67661 | 31039 ft | 473 kts | 184° |
| 2026-05-07 18:17 | 47.89390 | 6.67412 | 31054 ft | 473 kts | 184° |
| 2026-05-07 18:17 | 47.82810 | 6.67155 | 31051 ft | 473 kts | 184° |
| 2026-05-07 18:18 | 47.76234 | 6.66908 | 31042 ft | 472 kts | 184° |
| 2026-05-07 18:18 | 47.69662 | 6.66673 | 31039 ft | 472 kts | 184° |
| 2026-05-07 18:19 | 47.63087 | 6.66433 | 31035 ft | 472 kts | 184° |
| 2026-05-07 18:19 | 47.56511 | 6.66183 | 31035 ft | 472 kts | 185° |
| 2026-05-07 18:20 | 47.49931 | 6.65933 | 31034 ft | 472 kts | 185° |
| 2026-05-07 18:20 | 47.43432 | 6.65345 | 31028 ft | 468 kts | 194° |
| 2026-05-07 18:21 | 47.37408 | 6.62090 | 31034 ft | 459 kts | 213° |
| 2026-05-07 18:21 | 47.32389 | 6.56413 | 31041 ft | 454 kts | 223° |
| 2026-05-07 18:22 | 47.27585 | 6.50381 | 31052 ft | 454 kts | 223° |
| 2026-05-07 18:22 | 47.22760 | 6.44366 | 31049 ft | 454 kts | 223° |
| 2026-05-07 18:23 | 47.17946 | 6.38356 | 31036 ft | 454 kts | 223° |
| 2026-05-07 18:23 | 47.13137 | 6.32359 | 31047 ft | 453 kts | 223° |
| 2026-05-07 18:24 | 47.08200 | 6.26706 | 31050 ft | 456 kts | 213° |
| 2026-05-07 18:24 | 47.02179 | 6.23455 | 31044 ft | 465 kts | 193° |
| 2026-05-07 18:25 | 46.95748 | 6.22511 | 31033 ft | 468 kts | 189° |
| 2026-05-07 18:25 | 46.89253 | 6.21647 | 31043 ft | 468 kts | 189° |
| 2026-05-07 18:26 | 46.82778 | 6.20776 | 31040 ft | 468 kts | 189° |
| 2026-05-07 18:26 | 46.76301 | 6.19907 | 31032 ft | 467 kts | 189° |
| 2026-05-07 18:27 | 46.69829 | 6.19049 | 31038 ft | 466 kts | 189° |
| 2026-05-07 18:27 | 46.63357 | 6.18203 | 31029 ft | 466 kts | 189° |
| 2026-05-07 18:28 | 46.56893 | 6.17358 | 31031 ft | 466 kts | 189° |
| 2026-05-07 18:28 | 46.50429 | 6.16503 | 31023 ft | 466 kts | 189° |
| 2026-05-07 18:29 | 46.44010 | 6.15653 | 31014 ft | 466 kts | 189° |
| 2026-05-07 18:29 | 46.37553 | 6.14812 | 30988 ft | 466 kts | 189° |
| 2026-05-07 18:30 | 46.31095 | 6.13971 | 30997 ft | 465 kts | 189° |
| 2026-05-07 18:30 | 46.24646 | 6.13120 | 31000 ft | 464 kts | 190° |
| 2026-05-07 18:31 | 46.18256 | 6.11855 | 30995 ft | 462 kts | 193° |
| 2026-05-07 18:31 | 46.11913 | 6.10296 | 31002 ft | 461 kts | 193° |
| 2026-05-07 18:32 | 46.05619 | 6.08796 | 30979 ft | 462 kts | 193° |
| 2026-05-07 18:32 | 45.99266 | 6.07385 | 30961 ft | 461 kts | 192° |
| 2026-05-07 18:33 | 45.92910 | 6.06009 | 30974 ft | 461 kts | 192° |
| 2026-05-07 18:33 | 45.86569 | 6.04625 | 30977 ft | 461 kts | 192° |
| 2026-05-07 18:34 | 45.80231 | 6.03240 | 30965 ft | 461 kts | 192° |
| 2026-05-07 18:34 | 45.73900 | 6.01831 | 30974 ft | 460 kts | 192° |
| 2026-05-07 18:35 | 45.67567 | 6.00416 | 30974 ft | 460 kts | 193° |
| 2026-05-07 18:35 | 45.61232 | 5.99020 | 30966 ft | 460 kts | 192° |
| 2026-05-07 18:36 | 45.54957 | 5.97655 | 30972 ft | 459 kts | 192° |
| 2026-05-07 18:36 | 45.48646 | 5.96276 | 30978 ft | 459 kts | 192° |
| 2026-05-07 18:37 | 45.42384 | 5.94630 | 30966 ft | 456 kts | 196° |
| 2026-05-07 18:37 | 45.36212 | 5.92603 | 30982 ft | 455 kts | 197° |
| 2026-05-07 18:38 | 45.30051 | 5.90539 | 30987 ft | 455 kts | 196° |
| 2026-05-07 18:38 | 45.23866 | 5.88584 | 30987 ft | 455 kts | 196° |
| 2026-05-07 18:39 | 45.17671 | 5.86688 | 30983 ft | 455 kts | 196° |
| 2026-05-07 18:39 | 45.11468 | 5.84792 | 30987 ft | 455 kts | 196° |
| 2026-05-07 18:40 | 45.05279 | 5.82885 | 30982 ft | 455 kts | 196° |
| 2026-05-07 18:40 | 44.99135 | 5.80982 | 30979 ft | 454 kts | 196° |
| 2026-05-07 18:41 | 44.92961 | 5.79067 | 30979 ft | 454 kts | 196° |
| 2026-05-07 18:41 | 44.86784 | 5.77174 | 30978 ft | 454 kts | 196° |
| 2026-05-07 18:42 | 44.80620 | 5.75299 | 30980 ft | 453 kts | 196° |
| 2026-05-07 18:42 | 44.74450 | 5.73419 | 30977 ft | 452 kts | 196° |
| 2026-05-07 18:43 | 44.68333 | 5.71550 | 30975 ft | 452 kts | 196° |
| 2026-05-07 18:43 | 44.62167 | 5.69670 | 30966 ft | 452 kts | 196° |
| 2026-05-07 18:44 | 44.57057 | 5.68117 | 30969 ft | 452 kts | 196° |
| 2026-05-07 18:44 | 44.50909 | 5.66248 | 30968 ft | 452 kts | 196° |
| 2026-05-07 18:45 | 44.44766 | 5.64392 | 30963 ft | 452 kts | 196° |
| 2026-05-07 18:45 | 44.38623 | 5.62510 | 30964 ft | 450 kts | 199° |
| 2026-05-07 18:46 | 44.32796 | 5.59507 | 30963 ft | 446 kts | 205° |
| 2026-05-07 18:46 | 44.27018 | 5.56330 | 30950 ft | 446 kts | 206° |
| 2026-05-07 18:47 | 44.21250 | 5.53174 | 30982 ft | 445 kts | 206° |
| 2026-05-07 18:47 | 44.15498 | 5.50044 | 30979 ft | 443 kts | 206° |
| 2026-05-07 18:48 | 44.09791 | 5.46943 | 30974 ft | 443 kts | 206° |
| 2026-05-07 18:48 | 44.04053 | 5.43823 | 30965 ft | 442 kts | 206° |
| 2026-05-07 18:49 | 43.98322 | 5.40708 | 30969 ft | 442 kts | 206° |
| 2026-05-07 18:49 | 43.92592 | 5.37607 | 30973 ft | 442 kts | 206° |
| 2026-05-07 18:50 | 43.86865 | 5.34509 | 30956 ft | 442 kts | 206° |
| 2026-05-07 18:50 | 43.81141 | 5.31415 | 30980 ft | 441 kts | 205° |
| 2026-05-07 18:51 | 43.75418 | 5.28336 | 30976 ft | 441 kts | 205° |
| 2026-05-07 18:51 | 43.69703 | 5.25265 | 30973 ft | 440 kts | 205° |
| 2026-05-07 18:52 | 43.63994 | 5.22206 | 30973 ft | 439 kts | 205° |
| 2026-05-07 18:52 | 43.58304 | 5.19161 | 30990 ft | 438 kts | 205° |
| 2026-05-07 18:53 | 43.52618 | 5.16128 | 30976 ft | 438 kts | 205° |
| 2026-05-07 18:53 | 43.46979 | 5.13124 | 30971 ft | 436 kts | 205° |
| 2026-05-07 18:54 | 43.41329 | 5.10122 | 30976 ft | 435 kts | 205° |
| 2026-05-07 18:54 | 43.36044 | 5.06245 | 30972 ft | 429 kts | 217° |
| 2026-05-07 18:55 | 43.31135 | 5.01587 | 30958 ft | 429 kts | 217° |
| 2026-05-07 18:55 | 43.26208 | 4.96961 | 30969 ft | 429 kts | 216° |
| 2026-05-07 18:56 | 43.21285 | 4.92358 | 30988 ft | 428 kts | 216° |
| 2026-05-07 18:56 | 43.16372 | 4.87756 | 30992 ft | 427 kts | 216° |
| 2026-05-07 18:57 | 43.11654 | 4.83332 | 30975 ft | 426 kts | 216° |
| 2026-05-07 18:57 | 43.06774 | 4.78779 | 30966 ft | 426 kts | 216° |
| 2026-05-07 18:58 | 43.01650 | 4.74672 | 30970 ft | 428 kts | 211° |
| 2026-05-07 18:58 | 42.96431 | 4.70721 | 30962 ft | 428 kts | 211° |
| 2026-05-07 18:59 | 42.91222 | 4.66778 | 30957 ft | 428 kts | 211° |
| 2026-05-07 18:59 | 42.86000 | 4.62830 | 30956 ft | 429 kts | 211° |
| 2026-05-07 19:00 | 42.80777 | 4.58889 | 30956 ft | 429 kts | 211° |
| 2026-05-07 19:00 | 42.75560 | 4.54956 | 30975 ft | 428 kts | 211° |
| 2026-05-07 19:01 | 42.70338 | 4.51028 | 30993 ft | 427 kts | 211° |
| 2026-05-07 19:01 | 42.65167 | 4.47155 | 30982 ft | 427 kts | 211° |
| 2026-05-07 19:02 | 42.59969 | 4.43274 | 30977 ft | 426 kts | 211° |
| 2026-05-07 19:02 | 42.54765 | 4.39391 | 30972 ft | 426 kts | 211° |
| 2026-05-07 19:03 | 42.49567 | 4.35516 | 30948 ft | 427 kts | 210° |
| 2026-05-07 19:03 | 42.44344 | 4.31616 | 30946 ft | 429 kts | 210° |
| 2026-05-07 19:04 | 42.39096 | 4.27711 | 30826 ft | 430 kts | 210° |
| 2026-05-07 19:04 | 42.36477 | 4.25771 | 30676 ft | 429 kts | 210° |
| 2026-05-07 19:04 | 42.33849 | 4.23833 | 30528 ft | 430 kts | 210° |
| 2026-05-07 19:04 | 42.31222 | 4.21894 | 30383 ft | 432 kts | 210° |
| 2026-05-07 19:05 | 42.28577 | 4.19938 | 30225 ft | 435 kts | 210° |
| 2026-05-07 19:05 | 42.25919 | 4.17978 | 30097 ft | 434 kts | 209° |
| 2026-05-07 19:05 | 42.23302 | 4.16048 | 29928 ft | 434 kts | 209° |
| 2026-05-07 19:05 | 42.20614 | 4.14067 | 29764 ft | 434 kts | 209° |
| 2026-05-07 19:06 | 42.18000 | 4.12142 | 29598 ft | 434 kts | 209° |
| 2026-05-07 19:06 | 42.12698 | 4.08231 | 29318 ft | 435 kts | 209° |
| 2026-05-07 19:06 | 42.10038 | 4.06270 | 29175 ft | 436 kts | 209° |
| 2026-05-07 19:07 | 42.07372 | 4.04312 | 29033 ft | 437 kts | 209° |
| 2026-05-07 19:07 | 42.04694 | 4.02348 | 28902 ft | 438 kts | 209° |
| 2026-05-07 19:07 | 42.02018 | 4.00388 | 28749 ft | 438 kts | 209° |
| 2026-05-07 19:07 | 41.99340 | 3.98430 | 28622 ft | 439 kts | 209° |
| 2026-05-07 19:08 | 41.96656 | 3.96471 | 28500 ft | 439 kts | 209° |
| 2026-05-07 19:08 | 41.93938 | 3.94585 | 28344 ft | 440 kts | 205° |
| 2026-05-07 19:08 | 41.91056 | 3.93181 | 28215 ft | 442 kts | 197° |
| 2026-05-07 19:08 | 41.88036 | 3.92330 | 28077 ft | 443 kts | 191° |
| 2026-05-07 19:09 | 41.84995 | 3.91643 | 27939 ft | 443 kts | 191° |
| 2026-05-07 19:09 | 41.81958 | 3.90952 | 27809 ft | 444 kts | 191° |
| 2026-05-07 19:09 | 41.78904 | 3.90253 | 27690 ft | 445 kts | 191° |
| 2026-05-07 19:09 | 41.75843 | 3.89551 | 27584 ft | 446 kts | 191° |
| 2026-05-07 19:10 | 41.72827 | 3.88854 | 27486 ft | 446 kts | 191° |
| 2026-05-07 19:10 | 41.69760 | 3.88143 | 27375 ft | 447 kts | 191° |
| 2026-05-07 19:10 | 41.66695 | 3.87437 | 27268 ft | 448 kts | 191° |
| 2026-05-07 19:10 | 41.63626 | 3.86735 | 27164 ft | 448 kts | 191° |
| 2026-05-07 19:11 | 41.60536 | 3.86028 | 27058 ft | 449 kts | 191° |
| 2026-05-07 19:11 | 41.57456 | 3.85321 | 26957 ft | 450 kts | 191° |
| 2026-05-07 19:11 | 41.54365 | 3.84610 | 26854 ft | 450 kts | 191° |
| 2026-05-07 19:11 | 41.51275 | 3.83900 | 26752 ft | 451 kts | 191° |
| 2026-05-07 19:12 | 41.48176 | 3.83191 | 26637 ft | 452 kts | 191° |
| 2026-05-07 19:12 | 41.45066 | 3.82483 | 26530 ft | 454 kts | 191° |
| 2026-05-07 19:12 | 41.41954 | 3.81776 | 26436 ft | 455 kts | 191° |
| 2026-05-07 19:12 | 41.38875 | 3.81073 | 26338 ft | 455 kts | 191° |
| 2026-05-07 19:13 | 41.35753 | 3.80357 | 26239 ft | 455 kts | 191° |
| 2026-05-07 19:13 | 41.32624 | 3.79638 | 26134 ft | 456 kts | 190° |
| 2026-05-07 19:13 | 41.29497 | 3.78924 | 26038 ft | 456 kts | 190° |
| 2026-05-07 19:13 | 41.26370 | 3.78213 | 25928 ft | 457 kts | 190° |
| 2026-05-07 19:14 | 41.23229 | 3.77501 | 25830 ft | 459 kts | 190° |
| 2026-05-07 19:14 | 41.20082 | 3.76788 | 25742 ft | 460 kts | 190° |
| 2026-05-07 19:14 | 41.16924 | 3.76067 | 25666 ft | 460 kts | 191° |
| 2026-05-07 19:14 | 41.13839 | 3.74953 | 25591 ft | 460 kts | 200° |
| 2026-05-07 19:15 | 41.10854 | 3.73416 | 25520 ft | 460 kts | 201° |
| 2026-05-07 19:15 | 41.07864 | 3.71868 | 25440 ft | 461 kts | 201° |
| 2026-05-07 19:15 | 41.04869 | 3.70321 | 25364 ft | 463 kts | 202° |
| 2026-05-07 19:15 | 41.01898 | 3.68787 | 25289 ft | 464 kts | 201° |
| 2026-05-07 19:16 | 40.98876 | 3.67230 | 25227 ft | 465 kts | 201° |
| 2026-05-07 19:16 | 40.95855 | 3.65677 | 25146 ft | 466 kts | 201° |
| 2026-05-07 19:16 | 40.92828 | 3.64123 | 25068 ft | 466 kts | 201° |
| 2026-05-07 19:16 | 40.89803 | 3.62570 | 24999 ft | 467 kts | 201° |
| 2026-05-07 19:17 | 40.86774 | 3.61017 | 24925 ft | 467 kts | 201° |
| 2026-05-07 19:17 | 40.83743 | 3.59464 | 24852 ft | 467 kts | 201° |
| 2026-05-07 19:17 | 40.80720 | 3.57918 | 24780 ft | 466 kts | 201° |
| 2026-05-07 19:17 | 40.77691 | 3.56372 | 24704 ft | 466 kts | 201° |
| 2026-05-07 19:18 | 40.74666 | 3.54833 | 24639 ft | 466 kts | 201° |
| 2026-05-07 19:18 | 40.71642 | 3.53299 | 24568 ft | 466 kts | 201° |
| 2026-05-07 19:18 | 40.68606 | 3.51755 | 24496 ft | 466 kts | 201° |
| 2026-05-07 19:18 | 40.65579 | 3.50215 | 24424 ft | 466 kts | 201° |
| 2026-05-07 19:19 | 40.62551 | 3.48674 | 24351 ft | 465 kts | 201° |
| 2026-05-07 19:19 | 40.59538 | 3.47141 | 24286 ft | 465 kts | 201° |
| 2026-05-07 19:19 | 40.56514 | 3.45607 | 24212 ft | 465 kts | 201° |
| 2026-05-07 19:19 | 40.53535 | 3.44095 | 24128 ft | 465 kts | 201° |
| 2026-05-07 19:20 | 40.50515 | 3.42567 | 23944 ft | 464 kts | 201° |
| 2026-05-07 19:20 | 40.47511 | 3.41050 | 23972 ft | 464 kts | 201° |
| 2026-05-07 19:20 | 40.44411 | 3.39887 | 23974 ft | 465 kts | 191° |
| 2026-05-07 19:20 | 40.41192 | 3.39448 | 23974 ft | 466 kts | 182° |
| 2026-05-07 19:21 | 40.37962 | 3.39585 | 23973 ft | 463 kts | 179° |
| 2026-05-07 19:21 | 40.34746 | 3.39773 | 23788 ft | 462 kts | 179° |
| 2026-05-07 19:21 | 40.31537 | 3.39962 | 23556 ft | 460 kts | 179° |
| 2026-05-07 19:21 | 40.28345 | 3.40149 | 23288 ft | 458 kts | 179° |
| 2026-05-07 19:22 | 40.25152 | 3.40330 | 23015 ft | 457 kts | 179° |
| 2026-05-07 19:22 | 40.21990 | 3.40508 | 22746 ft | 455 kts | 179° |
| 2026-05-07 19:22 | 40.18824 | 3.40688 | 22478 ft | 454 kts | 179° |
| 2026-05-07 19:22 | 40.15660 | 3.40866 | 22205 ft | 455 kts | 179° |
| 2026-05-07 19:23 | 40.12490 | 3.41044 | 21937 ft | 454 kts | 179° |
| 2026-05-07 19:23 | 40.09338 | 3.41220 | 21683 ft | 453 kts | 179° |
| 2026-05-07 19:23 | 40.06232 | 3.41391 | 21432 ft | 452 kts | 179° |
| 2026-05-07 19:23 | 40.03097 | 3.41565 | 21130 ft | 450 kts | 178° |
| 2026-05-07 19:24 | 39.99971 | 3.41739 | 20806 ft | 448 kts | 178° |
| 2026-05-07 19:24 | 39.96857 | 3.41915 | 20471 ft | 447 kts | 178° |
| 2026-05-07 19:24 | 39.93767 | 3.42087 | 20151 ft | 442 kts | 178° |
| 2026-05-07 19:24 | 39.90700 | 3.42256 | 19823 ft | 440 kts | 178° |
| 2026-05-07 19:25 | 39.87643 | 3.42424 | 19516 ft | 438 kts | 177° |
| 2026-05-07 19:25 | 39.84603 | 3.42592 | 19205 ft | 436 kts | 177° |
| 2026-05-07 19:25 | 39.81604 | 3.42761 | 18897 ft | 425 kts | 177° |
| 2026-05-07 19:25 | 39.78700 | 3.42927 | 18600 ft | 411 kts | 176° |
| 2026-05-07 19:26 | 39.75880 | 3.43019 | 18241 ft | 399 kts | 182° |
| 2026-05-07 19:26 | 39.73187 | 3.42403 | 17956 ft | 388 kts | 196° |
| 2026-05-07 19:26 | 39.70782 | 3.40998 | 17957 ft | 371 kts | 210° |
| 2026-05-07 19:26 | 39.68770 | 3.39011 | 17925 ft | 357 kts | 221° |
| 2026-05-07 19:27 | 39.67200 | 3.36596 | 17524 ft | 355 kts | 235° |
| 2026-05-07 19:27 | 39.66038 | 3.33772 | 17105 ft | 353 kts | 242° |
| 2026-05-07 19:27 | 39.64960 | 3.30929 | 16682 ft | 350 kts | 242° |
| 2026-05-07 19:27 | 39.63881 | 3.28118 | 16279 ft | 347 kts | 242° |
| 2026-05-07 19:28 | 39.62804 | 3.25331 | 15872 ft | 344 kts | 242° |
| 2026-05-07 19:28 | 39.61734 | 3.22572 | 15474 ft | 338 kts | 242° |
| 2026-05-07 19:28 | 39.60679 | 3.19854 | 15082 ft | 336 kts | 241° |
| 2026-05-07 19:28 | 39.59643 | 3.17186 | 14688 ft | 324 kts | 242° |
| 2026-05-07 19:29 | 39.58647 | 3.14614 | 14304 ft | 313 kts | 242° |
| 2026-05-07 19:29 | 39.57687 | 3.12134 | 13914 ft | 303 kts | 242° |
| 2026-05-07 19:29 | 39.56757 | 3.09733 | 13524 ft | 294 kts | 242° |
| 2026-05-07 19:29 | 39.55850 | 3.07397 | 13102 ft | 285 kts | 241° |
| 2026-05-07 19:30 | 39.54973 | 3.05140 | 12688 ft | 276 kts | 241° |
| 2026-05-07 19:30 | 39.54120 | 3.02944 | 12274 ft | 269 kts | 242° |
| 2026-05-07 19:30 | 39.53285 | 3.00803 | 11866 ft | 263 kts | 242° |
| 2026-05-07 19:30 | 39.52466 | 2.98706 | 11468 ft | 259 kts | 242° |
| 2026-05-07 19:31 | 39.51672 | 2.96672 | 11072 ft | 255 kts | 241° |
| 2026-05-07 19:31 | 39.50879 | 2.94635 | 10679 ft | 252 kts | 242° |
| 2026-05-07 19:31 | 39.50097 | 2.92629 | 10290 ft | 248 kts | 242° |
| 2026-05-07 19:31 | 39.49325 | 2.90652 | 9913 ft | 244 kts | 242° |
| 2026-05-07 19:32 | 39.48562 | 2.88701 | 9500 ft | 242 kts | 242° |
| 2026-05-07 19:32 | 39.47806 | 2.86768 | 9088 ft | 239 kts | 242° |
| 2026-05-07 19:32 | 39.47058 | 2.84860 | 8661 ft | 237 kts | 242° |
| 2026-05-07 19:32 | 39.46557 | 2.83584 | 8387 ft | 235 kts | 241° |
| 2026-05-07 19:33 | 39.45831 | 2.81736 | 8014 ft | 230 kts | 240° |
| 2026-05-07 19:33 | 39.45121 | 2.79928 | 7617 ft | 220 kts | 241° |
| 2026-05-07 19:33 | 39.44444 | 2.78189 | 7215 ft | 213 kts | 241° |
| 2026-05-07 19:33 | 39.43796 | 2.76495 | 6821 ft | 207 kts | 242° |
| 2026-05-07 19:34 | 39.43157 | 2.74842 | 6428 ft | 203 kts | 242° |
| 2026-05-07 19:34 | 39.42529 | 2.73208 | 6162 ft | 201 kts | 241° |
| 2026-05-07 19:34 | 39.41898 | 2.71586 | 6159 ft | 202 kts | 236° |
| 2026-05-07 19:34 | 39.40881 | 2.70412 | 6163 ft | 197 kts | 199° |
| 2026-05-07 19:35 | 39.39558 | 2.70038 | 6171 ft | 194 kts | 185° |
| 2026-05-07 19:35 | 39.38215 | 2.69852 | 6170 ft | 194 kts | 182° |
| 2026-05-07 19:35 | 39.36874 | 2.69687 | 6163 ft | 194 kts | 182° |
| 2026-05-07 19:35 | 39.35533 | 2.69511 | 6159 ft | 192 kts | 182° |
| 2026-05-07 19:36 | 39.34193 | 2.69344 | 6157 ft | 194 kts | 182° |
| 2026-05-07 19:36 | 39.32847 | 2.69201 | 6117 ft | 195 kts | 182° |
| 2026-05-07 19:36 | 39.31482 | 2.69060 | 5739 ft | 197 kts | 181° |
| 2026-05-07 19:36 | 39.30120 | 2.68899 | 5356 ft | 197 kts | 182° |
| 2026-05-07 19:37 | 39.28756 | 2.68736 | 4977 ft | 196 kts | 182° |
| 2026-05-07 19:37 | 39.27418 | 2.68586 | 4599 ft | 196 kts | 182° |
| 2026-05-07 19:37 | 39.26063 | 2.68445 | 4213 ft | 195 kts | 182° |
| 2026-05-07 19:37 | 39.24750 | 2.68020 | 3823 ft | 200 kts | 208° |
| 2026-05-07 19:38 | 39.23853 | 2.66650 | 3442 ft | 206 kts | 248° |
| 2026-05-07 19:38 | 39.23759 | 2.64839 | 3171 ft | 201 kts | 281° |
| 2026-05-07 19:38 | 39.24089 | 2.63084 | 3154 ft | 203 kts | 286° |
| 2026-05-07 19:38 | 39.24468 | 2.61349 | 3158 ft | 199 kts | 287° |
| 2026-05-07 19:39 | 39.24855 | 2.59632 | 3157 ft | 199 kts | 287° |
| 2026-05-07 19:39 | 39.25240 | 2.57910 | 3158 ft | 201 kts | 288° |
| 2026-05-07 19:39 | 39.25617 | 2.56167 | 3158 ft | 202 kts | 287° |
| 2026-05-07 19:39 | 39.25985 | 2.54415 | 3155 ft | 203 kts | 287° |
| 2026-05-07 19:40 | 39.26359 | 2.52657 | 3157 ft | 203 kts | 287° |
| 2026-05-07 19:40 | 39.26740 | 2.50904 | 3154 ft | 201 kts | 287° |
| 2026-05-07 19:40 | 39.27121 | 2.49157 | 3161 ft | 204 kts | 287° |
| 2026-05-07 19:40 | 39.27511 | 2.47404 | 3154 ft | 202 kts | 288° |
| 2026-05-07 19:41 | 39.27889 | 2.45652 | 3163 ft | 203 kts | 287° |